Ana Sayfa
METAR-TAF:

METAR-TAF

Havaalanları :

Fort Stockton-Pecos County Airport

Fort Stockton, Teksas, Amerika Birleşik Devletleri

Enlem: 30-54-43N, Boylam: 102-55-00W, yükseklik: 917 m

Güncel hava durumu gözlemi

Rapor saat 19:53 UTC de 39 dakika önce yapıldı.
Rüzgar kuzey/kuzeybatıdan 11 kt ve 18 kt'a kadar ani rüzgarlar
Sıcaklık 11°C
Nem 37%
Basınç 1018 hPa
Görüş mesafesi: 16.1 km
Açık gökyüzü

METAR: KFST 251953Z AUTO 33011G18KT 10SM CLR 11/M03 A3007 RMK AO2 SLP159 T01061033

Saat: 14:32 (20:32 UTC)

Tahmin

Rapor saat 17:38 UTC de 2 saat ve 54 dakika önce yapıldı.
Ayın 25'si saat 18 UTC'den ayın 26'si saat 18 UTC'ye kadar geçerli Tahmin
Rüzgar kuzeydan 13 kt ve 22 kt'a kadar ani rüzgarlar
Görüş mesafesi: 10 km
5000 ft yükseklikte parçalı bulutlu
Ayın 26'si saat 0100 UTC'den
Rüzgar kuzeydan 11 kt
Görüş mesafesi: 10 km
9000 ft yükseklikte parçalı bulutlu

TAF: KFST 251738Z 2518/2618 35013G22KT P6SM SCT050 FM260100 35011KT P6SM SCT090

4.000'den fazla havaalanı için hava durumu gözlemleri ve tahminleri (METAR ve TAF raporları).

Kullanılabilir istasyonlar harita üzerinde sarı ve kırmızı noktalarla gösterilir.

İstasyonun adını görmek için fareyi noktanın üzerinde gezdirin.

Sonrasında hava gözlem ve tahminlerini görmek için tıklayın.

Haritayı değiştirmek için: yaklaştırmak için siyah artı işaretli yeşil düğmeye ve uzaklaştırmak için de eksi işaretli düğmeye hızla tıklayın; bitişik haritalar için yeşil okları kullanın.


METAR-TAF: